Lamar, Nebraska
Current Conditions -  °F | °C
As of 5:53 AM on Wednesday 22 Oct 2014 (Local Time) from KIML Reporting Station
Broken Clouds Broken Clouds  
Wind Chill: 54°   Ceiling: 11000
Heat Index: 54°   Visibility: 10mi
Dew Point: 45°   Wind: 7mph
Humidity: 72%   Direction: 340°NNW
Pressure: 29.95"   Gusts: NA
Location:  40.5076°N, 101.891°W
Report Text: KIML 221153Z AUTO 34006KT 10SM BKN110 12/07 A2995 RMK AO2 SLP122 T01220072 10161 20111 51012
Loading
Personal Weather Stations






























Interactive Weather Map
Tropical Storm Tracking
New forecast layout! Learn more

10-Day Weather Forecast

Advertisements
Track Severe Weather on mobile